Time;durP1;ratioP1;P1;durP2;ratioP2;P2;SDS_P1;SDS_P2;PMS_P1;PMS_P2;Temp;Humidity;BMP_temperature;BMP_pressure;BME280_temperature;BME280_humidity;BME280_pressure;Samples;Min_cycle;Max_cycle;Signal;HPM_P1;HPM_P2
2023/05/06 00:00:53;;;;;;;;;;;;;;;;;;5053997;28;19931;-67
2023/05/06 00:03:21;;;;;;;;;;;;;;;;;;5050420;28;19976;-67
2023/05/06 00:05:50;;;;;;;;;;;;;;;;;;5050705;28;20448;-67
2023/05/06 00:08:17;;;;;;;;;;;;;;;;;;5051186;28;19992;-68
2023/05/06 00:10:44;;;;;;;;;;;;;;;;;;5048181;28;19924;-67
2023/05/06 00:13:11;;;;;;;;;;;;;;;;;;5051437;28;20391;-68
2023/05/06 00:15:38;;;;;;;;;;;;;;;;;;5051387;28;20024;-67
2023/05/06 00:18:05;;;;;;;;;;;;;;;;;;5048764;28;20379;-66
2023/05/06 00:20:32;;;;;;;;;;;;;;;;;;5049156;28;19960;-66
2023/05/06 00:22:59;;;;;;;;;;;;;;;;;;5051095;28;19956;-67
2023/05/06 00:25:26;;;;;;;;;;;;;;;;;;5050744;28;19971;-67
2023/05/06 00:27:53;;;;;;;;;;;;;;;;;;5050713;28;19924;-69
2023/05/06 00:30:20;;;;;;;;;;;;;;;;;;5050780;28;19929;-68
2023/05/06 00:32:47;;;;;;;;;;;;;;;;;;5049059;28;19925;-67
2023/05/06 00:35:14;;;;;;;;;;;;;;;;;;5049962;28;19925;-66
2023/05/06 00:37:41;;;;;;;;;;;;;;;;;;5050372;28;19979;-67
2023/05/06 00:40:08;;;;;;;;;;;;;;;;;;5050712;28;19994;-67
2023/05/06 00:42:35;;;;;;;;;;;;;;;;;;5051690;28;19975;-67
2023/05/06 00:45:02;;;;;;;;;;;;;;;;;;5050841;28;20567;-67
2023/05/06 00:47:29;;;;;;;;;;;;;;;;;;5051083;28;19932;-66
2023/05/06 00:49:56;;;;;;;;;;;;;;;;;;5048128;28;20419;-67
2023/05/06 00:52:23;;;;;;;;;;;;;;;;;;5051592;28;20251;-69
2023/05/06 00:54:50;;;;;;;;;;;;;;;;;;5054772;28;19981;-67
2023/05/06 00:57:17;;;;;;;;;;;;;;;;;;5053480;28;19924;-67
2023/05/06 00:59:45;;;;;;;;;;;;;;;;;;5055230;28;19988;-71
2023/05/06 01:02:12;;;;;;;;;;;;;;;;;;5050298;28;20342;-66
2023/05/06 01:04:40;;;;;;;;;;;;;;;;;;5052309;28;19952;-68
2023/05/06 01:07:07;;;;;;;;;;;;;;;;;;5052919;28;19933;-68
2023/05/06 01:09:34;;;;;;;;;;;;;;;;;;5058607;28;19970;-67
2023/05/06 01:12:01;;;;;;;;;;;;;;;;;;5053235;28;19952;-67
2023/05/06 01:14:28;;;;;;;;;;;;;;;;;;5054656;28;19928;-67
2023/05/06 01:16:55;;;;;;;;;;;;;;;;;;5055275;28;20438;-67
2023/05/06 01:19:22;;;;;;;;;;;;;;;;;;5052334;28;19925;-67
2023/05/06 01:21:49;;;;;;;;;;;;;;;;;;5053202;28;19933;-66
2023/05/06 01:24:16;;;;;;;;;;;;;;;;;;5054635;28;20354;-66
2023/05/06 01:26:43;;;;;;;;;;;;;;;;;;5066018;28;19986;-66
2023/05/06 01:29:10;;;;;;;;;;;;;;;;;;5053376;28;19928;-67
2023/05/06 01:31:37;;;;;;;;;;;;;;;;;;5070230;28;19924;-66
2023/05/06 01:34:04;;;;;;;;;;;;;;;;;;5056039;28;19928;-66
2023/05/06 01:36:31;;;;;;;;;;;;;;;;;;5053528;28;20460;-66
2023/05/06 01:38:58;;;;;;;;;;;;;;;;;;5053913;28;19963;-66
2023/05/06 01:41:25;;;;;;;;;;;;;;;;;;5063058;28;19924;-67
2023/05/06 01:43:52;;;;;;;;;;;;;;;;;;5048297;28;19925;-66
2023/05/06 01:46:19;;;;;;;;;;;;;;;;;;5053420;28;20349;-67
2023/05/06 01:48:46;;;;;;;;;;;;;;;;;;5053100;28;19925;-67
2023/05/06 01:51:13;;;;;;;;;;;;;;;;;;5052776;28;19948;-67
2023/05/06 01:53:40;;;;;;;;;;;;;;;;;;5052833;28;19971;-67
2023/05/06 01:56:07;;;;;;;;;;;;;;;;;;5052320;28;19968;-66
2023/05/06 01:58:34;;;;;;;;;;;;;;;;;;5052893;28;20015;-67
2023/05/06 02:01:01;;;;;;;;;;;;;;;;;;5052717;28;20367;-67
2023/05/06 02:03:28;;;;;;;;;;;;;;;;;;5055609;28;20014;-66
2023/05/06 02:05:55;;;;;;;;;;;;;;;;;;5052048;28;19961;-67
2023/05/06 02:08:22;;;;;;;;;;;;;;;;;;5058760;28;19925;-67
2023/05/06 02:10:49;;;;;;;;;;;;;;;;;;5061838;28;19971;-67
2023/05/06 02:13:16;;;;;;;;;;;;;;;;;;5054749;28;19932;-67
2023/05/06 02:15:43;;;;;;;;;;;;;;;;;;5063620;28;19960;-66
2023/05/06 02:18:11;;;;;;;;;;;;;;;;;;5064530;28;19986;-67
2023/05/06 02:20:38;;;;;;;;;;;;;;;;;;5052536;28;19925;-67
2023/05/06 02:23:05;;;;;;;;;;;;;;;;;;5055426;28;20021;-66
2023/05/06 02:25:32;;;;;;;;;;;;;;;;;;5057800;28;19971;-67
2023/05/06 02:27:59;;;;;;;;;;;;;;;;;;5053297;28;20424;-67
2023/05/06 02:30:26;;;;;;;;;;;;;;;;;;5063054;28;20383;-68
2023/05/06 02:32:53;;;;;;;;;;;;;;;;;;5056775;28;19925;-67
2023/05/06 02:35:20;;;;;;;;;;;;;;;;;;5055925;28;19925;-67
2023/05/06 02:37:47;;;;;;;;;;;;;;;;;;5054608;28;19994;-68
2023/05/06 02:40:14;;;;;;;;;;;;;;;;;;5052390;28;19956;-67
2023/05/06 02:42:41;;;;;;;;;;;;;;;;;;5053086;28;19940;-67
2023/05/06 02:45:08;;;;;;;;;;;;;;;;;;5052722;28;19933;-68
2023/05/06 02:47:35;;;;;;;;;;;;;;;;;;5051003;28;20307;-67
2023/05/06 02:50:02;;;;;;;;;;;;;;;;;;5051957;28;19960;-68
2023/05/06 02:52:29;;;;;;;;;;;;;;;;;;5051409;28;19986;-67
2023/05/06 02:54:56;;;;;;;;;;;;;;;;;;5052701;28;19932;-67
2023/05/06 02:57:23;;;;;;;;;;;;;;;;;;5054374;28;19971;-68
2023/05/06 02:59:50;;;;;;;;;;;;;;;;;;5062798;28;19925;-67
2023/05/06 03:02:17;;;;;;;;;;;;;;;;;;5050230;28;19975;-67
2023/05/06 03:04:44;;;;;;;;;;;;;;;;;;5050872;28;20612;-67
2023/05/06 03:07:11;;;;;;;;;;;;;;;;;;5052056;28;19925;-67
2023/05/06 03:09:38;;;;;;;;;;;;;;;;;;5052543;28;19925;-67
2023/05/06 03:12:05;;;;;;;;;;;;;;;;;;5052574;28;19925;-66
2023/05/06 03:14:32;;;;;;;;;;;;;;;;;;5052307;28;20434;-65
2023/05/06 03:16:59;;;;;;;;;;;;;;;;;;5053042;28;20042;-65
2023/05/06 03:19:26;;;;;;;;;;;;;;;;;;5049507;28;20034;-65
2023/05/06 03:21:53;;;;;;;;;;;;;;;;;;5052134;28;20000;-65
2023/05/06 03:24:20;;;;;;;;;;;;;;;;;;5051769;28;20067;-66
2023/05/06 03:26:47;;;;;;;;;;;;;;;;;;5056216;28;19925;-66
2023/05/06 03:29:14;;;;;;;;;;;;;;;;;;5050257;28;20014;-66
2023/05/06 03:31:41;;;;;;;;;;;;;;;;;;5053002;28;20351;-66
2023/05/06 03:34:08;;;;;;;;;;;;;;;;;;5050396;28;19975;-67
2023/05/06 03:36:35;;;;;;;;;;;;;;;;;;5051291;28;20042;-66
2023/05/06 03:39:02;;;;;;;;;;;;;;;;;;5052425;28;20273;-67
2023/05/06 03:41:29;;;;;;;;;;;;;;;;;;5051086;28;20010;-67
2023/05/06 03:43:56;;;;;;;;;;;;;;;;;;5050697;28;19960;-66
2023/05/06 03:46:23;;;;;;;;;;;;;;;;;;5051624;28;20368;-67
2023/05/06 03:48:50;;;;;;;;;;;;;;;;;;5043692;28;19956;-67
2023/05/06 03:51:17;;;;;;;;;;;;;;;;;;5059458;28;20380;-67
2023/05/06 03:53:44;;;;;;;;;;;;;;;;;;5062131;28;20011;-67
2023/05/06 03:56:12;;;;;;;;;;;;;;;;;;5064350;28;19963;-67
2023/05/06 03:58:39;;;;;;;;;;;;;;;;;;5046844;28;19964;-67
2023/05/06 04:01:06;;;;;;;;;;;;;;;;;;5052886;28;20341;-67
2023/05/06 04:03:33;;;;;;;;;;;;;;;;;;5050716;28;19952;-66
2023/05/06 04:06:00;;;;;;;;;;;;;;;;;;5060622;28;19956;-67
2023/05/06 04:08:26;;;;;;;;;;;;;;;;;;5054774;28;19963;-67
2023/05/06 04:10:53;;;;;;;;;;;;;;;;;;5050153;28;19987;-67
2023/05/06 04:13:20;;;;;;;;;;;;;;;;;;5056743;28;19960;-67
2023/05/06 04:15:47;;;;;;;;;;;;;;;;;;5051272;28;19967;-68
2023/05/06 04:18:17;;;;;;;;;;;;;;;;;;5055204;28;20303;-67
2023/05/06 04:20:44;;;;;;;;;;;;;;;;;;5053200;28;20439;-67
2023/05/06 04:23:11;;;;;;;;;;;;;;;;;;5054219;28;20004;-67
2023/05/06 04:25:41;;;;;;;;;;;;;;;;;;5051355;28;19971;-68
2023/05/06 04:28:08;;;;;;;;;;;;;;;;;;5047814;28;19956;-65
2023/05/06 04:30:35;;;;;;;;;;;;;;;;;;5049087;28;19933;-64
2023/05/06 04:33:02;;;;;;;;;;;;;;;;;;5051566;28;19929;-65
2023/05/06 04:35:29;;;;;;;;;;;;;;;;;;5049605;28;20393;-64
2023/05/06 04:37:57;;;;;;;;;;;;;;;;;;5057343;28;19972;-64
2023/05/06 04:40:25;;;;;;;;;;;;;;;;;;5044240;28;20367;-65
2023/05/06 04:42:52;;;;;;;;;;;;;;;;;;5056589;28;19924;-64
2023/05/06 04:45:19;;;;;;;;;;;;;;;;;;5059645;28;20311;-65
2023/05/06 04:47:46;;;;;;;;;;;;;;;;;;5062052;28;19971;-65
2023/05/06 04:50:13;;;;;;;;;;;;;;;;;;5069223;28;19935;-65
2023/05/06 04:52:40;;;;;;;;;;;;;;;;;;5051588;28;19924;-65
2023/05/06 04:55:07;;;;;;;;;;;;;;;;;;5069039;28;19925;-65
2023/05/06 04:57:34;;;;;;;;;;;;;;;;;;5050731;28;20403;-64
2023/05/06 05:00:01;;;;;;;;;;;;;;;;;;5049723;28;20017;-64
2023/05/06 05:02:28;;;;;;;;;;;;;;;;;;5049319;28;20387;-64
2023/05/06 05:04:55;;;;;;;;;;;;;;;;;;5049290;28;20417;-64
2023/05/06 05:07:22;;;;;;;;;;;;;;;;;;5054546;28;19925;-65
2023/05/06 05:09:49;;;;;;;;;;;;;;;;;;5051027;28;20327;-65
2023/05/06 05:12:16;;;;;;;;;;;;;;;;;;5050029;28;19929;-64
2023/05/06 05:14:43;;;;;;;;;;;;;;;;;;5050093;28;19968;-65
2023/05/06 05:17:10;;;;;;;;;;;;;;;;;;5051766;28;19925;-65
2023/05/06 05:19:37;;;;;;;;;;;;;;;;;;5051131;28;19925;-65
2023/05/06 05:22:04;;;;;;;;;;;;;;;;;;5049008;28;19935;-65
2023/05/06 05:24:31;;;;;;;;;;;;;;;;;;5049011;28;19964;-67
2023/05/06 05:26:58;;;;;;;;;;;;;;;;;;5049879;28;19929;-65
2023/05/06 05:29:25;;;;;;;;;;;;;;;;;;5050744;28;19924;-65
2023/05/06 05:31:52;;;;;;;;;;;;;;;;;;5048899;28;19928;-66
2023/05/06 05:34:19;;;;;;;;;;;;;;;;;;5053972;28;19925;-64
2023/05/06 05:36:46;;;;;;;;;;;;;;;;;;5053931;28;19960;-65
2023/05/06 05:39:13;;;;;;;;;;;;;;;;;;5056468;28;19968;-64
2023/05/06 05:41:40;;;;;;;;;;;;;;;;;;5053610;28;20347;-65
2023/05/06 05:44:07;;;;;;;;;;;;;;;;;;5054402;28;19933;-66
2023/05/06 05:46:34;;;;;;;;;;;;;;;;;;5046474;28;19925;-65
2023/05/06 05:49:01;;;;;;;;;;;;;;;;;;5055545;28;20446;-64
2023/05/06 05:51:28;;;;;;;;;;;;;;;;;;5056363;28;19958;-65
2023/05/06 05:53:55;;;;;;;;;;;;;;;;;;5052582;28;20521;-65
2023/05/06 05:56:22;;;;;;;;;;;;;;;;;;5051847;28;19925;-65
2023/05/06 05:58:49;;;;;;;;;;;;;;;;;;5054842;28;20002;-65
2023/05/06 06:01:16;;;;;;;;;;;;;;;;;;5055096;28;20335;-65
2023/05/06 06:03:43;;;;;;;;;;;;;;;;;;5055460;28;19935;-64
2023/05/06 06:06:11;;;;;;;;;;;;;;;;;;5049940;28;19951;-65
2023/05/06 06:08:38;;;;;;;;;;;;;;;;;;5051861;28;19925;-65
2023/05/06 06:11:05;;;;;;;;;;;;;;;;;;5052634;28;19924;-65
2023/05/06 06:13:32;;;;;;;;;;;;;;;;;;5052996;28;19924;-65
2023/05/06 06:15:59;;;;;;;;;;;;;;;;;;5052956;28;19924;-65
2023/05/06 06:18:26;;;;;;;;;;;;;;;;;;5054695;28;19933;-65
2023/05/06 06:20:53;;;;;;;;;;;;;;;;;;5049431;28;19979;-66
2023/05/06 06:23:20;;;;;;;;;;;;;;;;;;5049238;28;19929;-66
2023/05/06 06:25:47;;;;;;;;;;;;;;;;;;5048255;28;19925;-65
2023/05/06 06:28:14;;;;;;;;;;;;;;;;;;5053440;28;19932;-66
2023/05/06 06:30:41;;;;;;;;;;;;;;;;;;5049729;28;20403;-68
2023/05/06 06:33:08;;;;;;;;;;;;;;;;;;5055166;28;20395;-67
2023/05/06 06:35:35;;;;;;;;;;;;;;;;;;5053213;28;19928;-68
2023/05/06 06:38:02;;;;;;;;;;;;;;;;;;5047239;28;19924;-69
2023/05/06 06:40:29;;;;;;;;;;;;;;;;;;5050797;28;20002;-70
2023/05/06 06:42:56;;;;;;;;;;;;;;;;;;5052238;28;19953;-68
2023/05/06 06:45:23;;;;;;;;;;;;;;;;;;5047935;28;19925;-68
2023/05/06 06:47:50;;;;;;;;;;;;;;;;;;5050654;28;19925;-67
2023/05/06 06:50:18;;;;;;;;;;;;;;;;;;5050808;28;19952;-68
2023/05/06 06:52:45;;;;;;;;;;;;;;;;;;5046891;28;20020;-69
2023/05/06 06:55:12;;;;;;;;;;;;;;;;;;5048981;28;20023;-69
2023/05/06 06:57:39;;;;;;;;;;;;;;;;;;5049788;28;19933;-69
2023/05/06 07:00:06;;;;;;;;;;;;;;;;;;5052321;28;19925;-68
2023/05/06 07:02:33;;;;;;;;;;;;;;;;;;5047480;28;19928;-69
2023/05/06 07:05:00;;;;;;;;;;;;;;;;;;5049695;28;20346;-69
2023/05/06 07:07:27;;;;;;;;;;;;;;;;;;5049866;28;20292;-68
2023/05/06 07:09:54;;;;;;;;;;;;;;;;;;5049826;28;19979;-69
2023/05/06 07:12:23;;;;;;;;;;;;;;;;;;5050375;28;19979;-69
2023/05/06 07:14:50;;;;;;;;;;;;;;;;;;5051092;28;19971;-70
2023/05/06 07:17:17;;;;;;;;;;;;;;;;;;5048182;28;19929;-70
2023/05/06 07:19:44;;;;;;;;;;;;;;;;;;5051093;28;19983;-68
2023/05/06 07:22:11;;;;;;;;;;;;;;;;;;5049575;28;19924;-69
2023/05/06 07:24:38;;;;;;;;;;;;;;;;;;5064690;28;20029;-69
2023/05/06 07:27:08;;;;;;;;;;;;;;;;;;5053751;28;19994;-69
2023/05/06 07:29:36;;;;;;;;;;;;;;;;;;5065162;28;19925;-70
2023/05/06 07:32:03;;;;;;;;;;;;;;;;;;5054996;28;19931;-68
2023/05/06 07:34:30;;;;;;;;;;;;;;;;;;5050190;28;20302;-68
2023/05/06 07:36:57;;;;;;;;;;;;;;;;;;5049254;28;20007;-68
2023/05/06 07:39:24;;;;;;;;;;;;;;;;;;5051299;28;20382;-69
2023/05/06 07:41:51;;;;;;;;;;;;;;;;;;5050379;28;19925;-68
2023/05/06 07:44:18;;;;;;;;;;;;;;;;;;5048175;28;19925;-68
2023/05/06 07:46:45;;;;;;;;;;;;;;;;;;5046384;28;19928;-69
2023/05/06 07:49:12;;;;;;;;;;;;;;;;;;5050527;28;20371;-69
2023/05/06 07:51:39;;;;;;;;;;;;;;;;;;5050790;28;19979;-67
2023/05/06 07:54:06;;;;;;;;;;;;;;;;;;5049672;28;20345;-68
2023/05/06 07:56:33;;;;;;;;;;;;;;;;;;5050751;28;19924;-68
2023/05/06 07:59:00;;;;;;;;;;;;;;;;;;5046866;28;19933;-68
2023/05/06 08:01:27;;;;;;;;;;;;;;;;;;5048785;28;19933;-68
2023/05/06 08:03:54;;;;;;;;;;;;;;;;;;5039992;28;19924;-68
2023/05/06 08:06:21;;;;;;;;;;;;;;;;;;5043599;28;19968;-69
2023/05/06 08:08:48;;;;;;;;;;;;;;;;;;5055591;28;19928;-68
2023/05/06 08:11:15;;;;;;;;;;;;;;;;;;5055997;28;19928;-68
2023/05/06 08:13:43;;;;;;;;;;;;;;;;;;5050494;28;20359;-69
2023/05/06 08:16:10;;;;;;;;;;;;;;;;;;5052109;28;19978;-69
2023/05/06 08:18:37;;;;;;;;;;;;;;;;;;5050608;28;20291;-69
2023/05/06 08:21:04;;;;;;;;;;;;;;;;;;5051990;28;19994;-68
2023/05/06 08:23:31;;;;;;;;;;;;;;;;;;5051318;28;19924;-69
2023/05/06 08:25:58;;;;;;;;;;;;;;;;;;5042696;28;20391;-68
2023/05/06 08:28:28;;;;;;;;;;;;;;;;;;5051957;28;19924;-69
2023/05/06 08:30:55;;;;;;;;;;;;;;;;;;5044988;28;19932;-69
2023/05/06 08:33:22;;;;;;;;;;;;;;;;;;5049284;28;19948;-69
2023/05/06 08:35:49;;;;;;;;;;;;;;;;;;5048425;28;19932;-68
2023/05/06 08:38:16;;;;;;;;;;;;;;;;;;5049851;28;20011;-68
2023/05/06 08:40:43;;;;;;;;;;;;;;;;;;5048716;28;19925;-69
2023/05/06 08:43:10;;;;;;;;;;;;;;;;;;5047976;28;20008;-69
2023/05/06 08:45:37;;;;;;;;;;;;;;;;;;5047517;28;20041;-69
2023/05/06 08:48:05;;;;;;;;;;;;;;;;;;5046499;28;19924;-69
2023/05/06 08:50:32;;;;;;;;;;;;;;;;;;5046310;28;19924;-69
2023/05/06 08:52:59;;;;;;;;;;;;;;;;;;5044849;28;20338;-69
2023/05/06 08:55:26;;;;;;;;;;;;;;;;;;5044289;28;19925;-69
2023/05/06 08:57:53;;;;;;;;;;;;;;;;;;5046732;28;20620;-69
2023/05/06 09:00:20;;;;;;;;;;;;;;;;;;5047247;28;19940;-68
2023/05/06 09:02:47;;;;;;;;;;;;;;;;;;5047678;28;20392;-69
2023/05/06 09:05:15;;;;;;;;;;;;;;;;;;5048157;28;20025;-67
2023/05/06 09:07:42;;;;;;;;;;;;;;;;;;5047705;28;19971;-69
2023/05/06 09:10:09;;;;;;;;;;;;;;;;;;5041598;28;20552;-68
2023/05/06 09:12:36;;;;;;;;;;;;;;;;;;5051540;28;19925;-67
2023/05/06 09:15:03;;;;;;;;;;;;;;;;;;5052778;28;19925;-68
2023/05/06 09:17:30;;;;;;;;;;;;;;;;;;5053394;28;19925;-68
2023/05/06 09:19:57;;;;;;;;;;;;;;;;;;5045096;28;19933;-69
2023/05/06 09:22:24;;;;;;;;;;;;;;;;;;5050520;28;20449;-69
2023/05/06 09:24:55;;;;;;;;;;;;;;;;;;5049364;28;19925;-68
2023/05/06 09:27:22;;;;;;;;;;;;;;;;;;5051649;28;19925;-68
2023/05/06 09:29:49;;;;;;;;;;;;;;;;;;5053291;28;19964;-68
2023/05/06 09:32:16;;;;;;;;;;;;;;;;;;5053340;28;20311;-68
2023/05/06 09:34:45;;;;;;;;;;;;;;;;;;5058168;28;19928;-68
2023/05/06 09:37:12;;;;;;;;;;;;;;;;;;5048634;28;19935;-67
2023/05/06 09:39:39;;;;;;;;;;;;;;;;;;5053216;28;19924;-68
2023/05/06 09:42:06;;;;;;;;;;;;;;;;;;5051082;28;19971;-68
2023/05/06 09:44:33;;;;;;;;;;;;;;;;;;5051281;28;19983;-68
2023/05/06 09:47:00;;;;;;;;;;;;;;;;;;5051640;28;19925;-69
2023/05/06 09:49:27;;;;;;;;;;;;;;;;;;5053592;28;19925;-68
2023/05/06 09:51:54;;;;;;;;;;;;;;;;;;5052557;28;20364;-69
2023/05/06 09:54:21;;;;;;;;;;;;;;;;;;5045729;28;19971;-70
2023/05/06 09:56:48;;;;;;;;;;;;;;;;;;5047561;28;20358;-69
2023/05/06 09:59:17;;;;;;;;;;;;;;;;;;5048719;28;19924;-68
2023/05/06 10:01:44;;;;;;;;;;;;;;;;;;5050439;28;19929;-69
2023/05/06 10:04:11;;;;;;;;;;;;;;;;;;5050949;28;19932;-69
2023/05/06 10:06:38;;;;;;;;;;;;;;;;;;5050530;28;20444;-68
2023/05/06 10:09:06;;;;;;;;;;;;;;;;;;5052344;28;19925;-69
2023/05/06 10:11:33;;;;;;;;;;;;;;;;;;5050319;28;19979;-69
2023/05/06 10:14:00;;;;;;;;;;;;;;;;;;5052083;28;20482;-68
2023/05/06 10:16:27;;;;;;;;;;;;;;;;;;5051403;28;19978;-68
2023/05/06 10:18:54;;;;;;;;;;;;;;;;;;5051143;28;19951;-68
2023/05/06 10:21:21;;;;;;;;;;;;;;;;;;5050953;28;20605;-68
2023/05/06 10:23:50;;;;;;;;;;;;;;;;;;5049210;28;19925;-68
2023/05/06 10:26:18;;;;;;;;;;;;;;;;;;5050547;28;19964;-67
2023/05/06 10:28:45;;;;;;;;;;;;;;;;;;5047683;28;19982;-67
2023/05/06 10:31:12;;;;;;;;;;;;;;;;;;5051914;28;19925;-68
2023/05/06 10:33:39;;;;;;;;;;;;;;;;;;5051458;28;19970;-68
2023/05/06 10:36:06;;;;;;;;;;;;;;;;;;5051584;28;19925;-68
2023/05/06 10:38:33;;;;;;;;;;;;;;;;;;5049448;28;19964;-69
2023/05/06 10:41:00;;;;;;;;;;;;;;;;;;5052567;28;19933;-68
2023/05/06 10:43:27;;;;;;;;;;;;;;;;;;5052100;28;20741;-69
2023/05/06 10:45:54;;;;;;;;;;;;;;;;;;5049796;28;19956;-69
2023/05/06 10:48:21;;;;;;;;;;;;;;;;;;5056260;28;19928;-69
2023/05/06 10:50:48;;;;;;;;;;;;;;;;;;5049699;28;19933;-69
2023/05/06 10:53:15;;;;;;;;;;;;;;;;;;5050968;28;19925;-69
2023/05/06 10:55:42;;;;;;;;;;;;;;;;;;5049908;28;20334;-68
2023/05/06 10:58:09;;;;;;;;;;;;;;;;;;5051873;28;19967;-69
2023/05/06 11:00:36;;;;;;;;;;;;;;;;;;5050144;28;19925;-69
2023/05/06 11:03:03;;;;;;;;;;;;;;;;;;5048417;28;19928;-69
2023/05/06 11:05:30;;;;;;;;;;;;;;;;;;5051443;28;20342;-69
2023/05/06 11:07:57;;;;;;;;;;;;;;;;;;5050316;28;19925;-68
2023/05/06 11:10:24;;;;;;;;;;;;;;;;;;5060703;28;19968;-69
2023/05/06 11:12:52;;;;;;;;;;;;;;;;;;5051740;28;20336;-69
2023/05/06 11:15:19;;;;;;;;;;;;;;;;;;5050902;28;19925;-69
2023/05/06 11:17:46;;;;;;;;;;;;;;;;;;5050768;28;19987;-67
2023/05/06 11:20:13;;;;;;;;;;;;;;;;;;5049759;28;20046;-68
2023/05/06 11:22:40;;;;;;;;;;;;;;;;;;5048629;28;19961;-69
2023/05/06 11:25:07;;;;;;;;;;;;;;;;;;5053149;28;20023;-68
2023/05/06 11:27:34;;;;;;;;;;;;;;;;;;5051947;28;20368;-68
2023/05/06 11:30:01;;;;;;;;;;;;;;;;;;5052905;28;19929;-68
2023/05/06 11:32:28;;;;;;;;;;;;;;;;;;5051884;28;19924;-67
2023/05/06 11:34:55;;;;;;;;;;;;;;;;;;5050597;28;20014;-69
2023/05/06 11:37:22;;;;;;;;;;;;;;;;;;5033053;28;19925;-68
2023/05/06 11:39:49;;;;;;;;;;;;;;;;;;5049623;28;19982;-68
2023/05/06 11:42:16;;;;;;;;;;;;;;;;;;5051956;28;19970;-69
2023/05/06 11:44:43;;;;;;;;;;;;;;;;;;5053538;28;19926;-69
2023/05/06 11:47:10;;;;;;;;;;;;;;;;;;5052376;28;19987;-69
2023/05/06 11:49:37;;;;;;;;;;;;;;;;;;5051901;28;20594;-69
2023/05/06 11:52:04;;;;;;;;;;;;;;;;;;5054941;28;20023;-69
2023/05/06 11:54:31;;;;;;;;;;;;;;;;;;5052217;28;20345;-70
2023/05/06 11:56:59;;;;;;;;;;;;;;;;;;5052091;28;19932;-68
2023/05/06 11:59:26;;;;;;;;;;;;;;;;;;5051512;28;19944;-68
2023/05/06 12:01:53;;;;;;;;;;;;;;;;;;5047197;28;19996;-69
2023/05/06 12:04:20;;;;;;;;;;;;;;;;;;5050224;28;19995;-68
2023/05/06 12:06:47;;;;;;;;;;;;;;;;;;5047798;28;19929;-69
2023/05/06 12:09:14;;;;;;;;;;;;;;;;;;5043343;28;19925;-69
2023/05/06 12:11:41;;;;;;;;;;;;;;;;;;5048316;28;19948;-68
2023/05/06 12:14:08;;;;;;;;;;;;;;;;;;5051571;28;20434;-69
2023/05/06 12:16:35;;;;;;;;;;;;;;;;;;5051365;28;19925;-68
2023/05/06 12:19:02;;;;;;;;;;;;;;;;;;5051282;28;20391;-70
2023/05/06 12:21:29;;;;;;;;;;;;;;;;;;5051019;28;19929;-70
2023/05/06 12:23:56;;;;;;;;;;;;;;;;;;5051605;28;19925;-69
2023/05/06 12:26:23;;;;;;;;;;;;;;;;;;5050843;28;19925;-69
2023/05/06 12:28:50;;;;;;;;;;;;;;;;;;5047978;28;19924;-70
2023/05/06 12:31:17;;;;;;;;;;;;;;;;;;5051381;28;19936;-69
2023/05/06 12:33:44;;;;;;;;;;;;;;;;;;5050765;28;19925;-69
2023/05/06 12:36:11;;;;;;;;;;;;;;;;;;5051618;28;19971;-69
2023/05/06 12:38:39;;;;;;;;;;;;;;;;;;5050818;28;19925;-69
2023/05/06 12:41:08;;;;;;;;;;;;;;;;;;5043658;28;19978;-70
2023/05/06 12:43:35;;;;;;;;;;;;;;;;;;5045831;28;19979;-69
2023/05/06 12:46:02;;;;;;;;;;;;;;;;;;5053089;28;20019;-69
2023/05/06 12:48:29;;;;;;;;;;;;;;;;;;5055323;28;19925;-68
2023/05/06 12:50:56;;;;;;;;;;;;;;;;;;5054030;28;19983;-68
2023/05/06 12:53:23;;;;;;;;;;;;;;;;;;5046011;28;19983;-68
2023/05/06 12:55:50;;;;;;;;;;;;;;;;;;5053506;28;19925;-68
2023/05/06 12:58:17;;;;;;;;;;;;;;;;;;5054267;28;19925;-67
2023/05/06 13:00:44;;;;;;;;;;;;;;;;;;5053736;28;19924;-68
2023/05/06 13:03:12;;;;;;;;;;;;;;;;;;5053820;28;20244;-69
2023/05/06 13:05:39;;;;;;;;;;;;;;;;;;5053495;28;19925;-69
2023/05/06 13:08:06;;;;;;;;;;;;;;;;;;5053517;28;19994;-68
2023/05/06 13:10:33;;;;;;;;;;;;;;;;;;5054022;28;19925;-69
2023/05/06 13:13:00;;;;;;;;;;;;;;;;;;5051394;28;19955;-68
2023/05/06 13:15:27;;;;;;;;;;;;;;;;;;5050474;28;19936;-68
2023/05/06 13:17:55;;;;;;;;;;;;;;;;;;5051043;28;20003;-68
2023/05/06 13:20:23;;;;;;;;;;;;;;;;;;5054804;28;19924;-68
2023/05/06 13:22:50;;;;;;;;;;;;;;;;;;5048112;28;20872;-68
2023/05/06 13:25:17;;;;;;;;;;;;;;;;;;5050175;28;19925;-69
2023/05/06 13:27:44;;;;;;;;;;;;;;;;;;5051662;28;19925;-68
2023/05/06 13:30:11;;;;;;;;;;;;;;;;;;5053230;28;19928;-69
2023/05/06 13:32:38;;;;;;;;;;;;;;;;;;5052296;28;20027;-69
2023/05/06 13:35:05;;;;;;;;;;;;;;;;;;5052873;28;20347;-69
2023/05/06 13:37:32;;;;;;;;;;;;;;;;;;5052554;28;20366;-68
2023/05/06 13:39:59;;;;;;;;;;;;;;;;;;5052310;28;19978;-69
2023/05/06 13:42:26;;;;;;;;;;;;;;;;;;5051595;28;19924;-68
2023/05/06 13:44:53;;;;;;;;;;;;;;;;;;5052545;28;19971;-69
2023/05/06 13:47:21;;;;;;;;;;;;;;;;;;5049961;28;20047;-68
2023/05/06 13:49:48;;;;;;;;;;;;;;;;;;5049832;28;19955;-68
2023/05/06 13:52:15;;;;;;;;;;;;;;;;;;5049578;28;19928;-68
2023/05/06 13:54:43;;;;;;;;;;;;;;;;;;5048168;28;19925;-68
2023/05/06 13:57:10;;;;;;;;;;;;;;;;;;5050854;28;20295;-69
2023/05/06 13:59:37;;;;;;;;;;;;;;;;;;5052869;28;19955;-68
2023/05/06 14:02:04;;;;;;;;;;;;;;;;;;5045517;28;19948;-68
2023/05/06 14:04:31;;;;;;;;;;;;;;;;;;5051366;28;19925;-68
2023/05/06 14:06:58;;;;;;;;;;;;;;;;;;5049358;28;20360;-68
2023/05/06 14:09:25;;;;;;;;;;;;;;;;;;5052370;28;20315;-69
2023/05/06 14:11:52;;;;;;;;;;;;;;;;;;5054987;28;19929;-68
2023/05/06 14:14:20;;;;;;;;;;;;;;;;;;5051210;28;19971;-68
2023/05/06 14:16:50;;;;;;;;;;;;;;;;;;5051529;28;20326;-68
2023/05/06 14:19:17;;;;;;;;;;;;;;;;;;5052901;28;19968;-69
2023/05/06 14:21:44;;;;;;;;;;;;;;;;;;5052102;28;19924;-68
2023/05/06 14:24:11;;;;;;;;;;;;;;;;;;5052047;28;19924;-69
2023/05/06 14:26:39;;;;;;;;;;;;;;;;;;5046696;28;20581;-68
2023/05/06 14:29:06;;;;;;;;;;;;;;;;;;5052939;28;19929;-69
2023/05/06 14:31:33;;;;;;;;;;;;;;;;;;5051311;28;19964;-69
2023/05/06 14:34:00;;;;;;;;;;;;;;;;;;5053333;28;20380;-68
2023/05/06 14:36:27;;;;;;;;;;;;;;;;;;5051791;28;19928;-68
2023/05/06 14:38:54;;;;;;;;;;;;;;;;;;5048574;28;19960;-68
2023/05/06 14:41:21;;;;;;;;;;;;;;;;;;5040893;28;19929;-68
2023/05/06 14:43:48;;;;;;;;;;;;;;;;;;5052556;28;20007;-69
2023/05/06 14:46:16;;;;;;;;;;;;;;;;;;5062873;28;19924;-68
2023/05/06 14:48:44;;;;;;;;;;;;;;;;;;5072390;28;19932;-69
2023/05/06 14:51:11;;;;;;;;;;;;;;;;;;5055638;28;20350;-68
2023/05/06 14:53:38;;;;;;;;;;;;;;;;;;5052214;28;19983;-68
2023/05/06 14:56:05;;;;;;;;;;;;;;;;;;5044284;28;20392;-69
2023/05/06 14:58:32;;;;;;;;;;;;;;;;;;5049919;28;19933;-68
2023/05/06 15:00:59;;;;;;;;;;;;;;;;;;5049545;28;20023;-68
2023/05/06 15:03:26;;;;;;;;;;;;;;;;;;5048688;28;19928;-68
2023/05/06 15:05:53;;;;;;;;;;;;;;;;;;5051123;28;19924;-68
2023/05/06 15:08:20;;;;;;;;;;;;;;;;;;5051366;28;19991;-68
2023/05/06 15:10:47;;;;;;;;;;;;;;;;;;5049976;28;19952;-67
2023/05/06 15:13:14;;;;;;;;;;;;;;;;;;5049488;28;20423;-68
2023/05/06 15:15:41;;;;;;;;;;;;;;;;;;5048484;28;20389;-69
2023/05/06 15:18:08;;;;;;;;;;;;;;;;;;5047726;28;19994;-69
2023/05/06 15:20:35;;;;;;;;;;;;;;;;;;5045228;28;20311;-69
2023/05/06 15:23:02;;;;;;;;;;;;;;;;;;5050424;28;19925;-68
2023/05/06 15:25:29;;;;;;;;;;;;;;;;;;5045828;28;19925;-69
2023/05/06 15:27:56;;;;;;;;;;;;;;;;;;5049746;28;19929;-69
2023/05/06 15:30:23;;;;;;;;;;;;;;;;;;5051693;28;19925;-68
2023/05/06 15:32:50;;;;;;;;;;;;;;;;;;5051150;28;19933;-68
2023/05/06 15:35:17;;;;;;;;;;;;;;;;;;5051276;28;19987;-68
2023/05/06 15:37:44;;;;;;;;;;;;;;;;;;5050485;28;19997;-69
2023/05/06 15:40:12;;;;;;;;;;;;;;;;;;5048884;28;20383;-68
2023/05/06 15:42:39;;;;;;;;;;;;;;;;;;5047769;28;19964;-68
2023/05/06 15:45:06;;;;;;;;;;;;;;;;;;5050887;28;19925;-68
2023/05/06 15:47:33;;;;;;;;;;;;;;;;;;5048527;28;19925;-68
2023/05/06 15:50:00;;;;;;;;;;;;;;;;;;5050740;28;19974;-68
2023/05/06 15:52:27;;;;;;;;;;;;;;;;;;5051198;28;19925;-68
2023/05/06 15:54:54;;;;;;;;;;;;;;;;;;5059109;28;19972;-69
2023/05/06 15:57:21;;;;;;;;;;;;;;;;;;5047725;28;20367;-68
2023/05/06 15:59:48;;;;;;;;;;;;;;;;;;5065918;28;19978;-68
2023/05/06 16:02:15;;;;;;;;;;;;;;;;;;5047290;28;19968;-67
2023/05/06 16:04:42;;;;;;;;;;;;;;;;;;5061920;28;19935;-67
2023/05/06 16:07:09;;;;;;;;;;;;;;;;;;5050890;28;20334;-68
2023/05/06 16:09:36;;;;;;;;;;;;;;;;;;5050341;28;19986;-68
2023/05/06 16:12:03;;;;;;;;;;;;;;;;;;5053316;28;20394;-68
2023/05/06 16:14:30;;;;;;;;;;;;;;;;;;5057537;28;19986;-68
2023/05/06 16:16:57;;;;;;;;;;;;;;;;;;5047510;28;19978;-68
2023/05/06 16:19:24;;;;;;;;;;;;;;;;;;5049274;28;19960;-67
2023/05/06 16:21:52;;;;;;;;;;;;;;;;;;5049882;28;19924;-68
2023/05/06 16:24:19;;;;;;;;;;;;;;;;;;5049351;28;20288;-68
2023/05/06 16:26:46;;;;;;;;;;;;;;;;;;5049743;28;19933;-68
2023/05/06 16:29:14;;;;;;;;;;;;;;;;;;5047164;28;19957;-67
2023/05/06 16:31:41;;;;;;;;;;;;;;;;;;5050663;28;19979;-68
2023/05/06 16:34:08;;;;;;;;;;;;;;;;;;5049604;28;19971;-68
2023/05/06 16:36:35;;;;;;;;;;;;;;;;;;5047645;28;19925;-68
2023/05/06 16:39:02;;;;;;;;;;;;;;;;;;5051049;28;19974;-68
2023/05/06 16:41:29;;;;;;;;;;;;;;;;;;5049656;28;19956;-67
2023/05/06 16:43:56;;;;;;;;;;;;;;;;;;5044681;28;19971;-68